Terminal Aerodrome Forecast
Issued by NWS Mt. Holly, NJ

Current Version | Previous Version | Text Only | Print | Product List | Glossary On
Versions: 1 2 3 4 5 6 7 8 9 10 11 12 13 14 15 16 17 18 19 20 21 22 23 24 25 26 27 28 29 30 31 32 33 34 35 36 37 38
848
FTAK31 PANC 290850 AAA
TAFABE
TAF AMD
PABE 290850Z 2909/3006 14005KT 2SM BR SCT008 BKN050
      TEMPO 2909/2913 1SM BR BKN012
     FM291800 15004KT P6SM SCT035 OVC080
     FM292000 12011KT P6SM VCSH SCT025 BKN050=

USA.gov is the U.S. government's official web portal to all federal, state and local government web resources and services.